Time;durP1;ratioP1;P1;durP2;ratioP2;P2;SDS_P1;SDS_P2;PMS_P1;PMS_P2;Temp;Humidity;BMP_temperature;BMP_pressure;BME280_temperature;BME280_humidity;BME280_pressure;Samples;Min_cycle;Max_cycle;Signal;HPM_P1;HPM_P2
2022/09/17 00:00:47;;;;;;;9.10;1.30;;;12.30;99.90;;;;;;5053951;28;20163;-82
2022/09/17 00:03:13;;;;;;;6.68;1.58;;;12.40;99.90;;;;;;5053864;28;20174;-82
2022/09/17 00:05:38;;;;;;;9.63;1.33;;;12.30;99.90;;;;;;5053732;28;20220;-81
2022/09/17 00:08:06;;;;;;;6.82;1.52;;;12.50;99.90;;;;;;5053653;28;20237;-81
2022/09/17 00:10:36;;;;;;;7.88;1.33;;;12.40;99.90;;;;;;5053408;28;20244;-81
2022/09/17 00:13:03;;;;;;;4.30;1.30;;;12.40;99.90;;;;;;5053748;28;20629;-80
2022/09/17 00:15:28;;;;;;;7.82;1.25;;;12.50;99.90;;;;;;5035729;28;20195;-81
2022/09/17 00:17:56;;;;;;;3.88;0.98;;;12.60;99.90;;;;;;5053492;28;20167;-81
2022/09/17 00:20:25;;;;;;;7.35;1.20;;;12.40;99.90;;;;;;5035391;28;20254;-81
2022/09/17 00:22:52;;;;;;;8.20;1.10;;;12.50;99.90;;;;;;5035222;28;20593;-81
2022/09/17 00:25:18;;;;;;;10.05;1.13;;;12.60;99.90;;;;;;5053198;28;20538;-81
2022/09/17 00:27:44;;;;;;;6.38;1.08;;;12.50;99.90;;;;;;5035348;28;20159;-81
2022/09/17 00:30:11;;;;;;;9.02;1.40;;;12.40;99.90;;;;;;5035369;28;20289;-81
2022/09/17 00:32:37;;;;;;;8.60;1.00;;;12.30;99.90;;;;;;5035421;28;20261;-80
2022/09/17 00:35:03;;;;;;;3.45;0.70;;;12.40;99.90;;;;;;5035325;28;20298;-80
2022/09/17 00:37:28;;;;;;;11.02;1.98;;;12.30;99.90;;;;;;5053161;28;20163;-80
2022/09/17 00:39:54;;;;;;;6.90;1.00;;;12.10;99.90;;;;;;5035380;28;20179;-80
2022/09/17 00:42:21;;;;;;;2.85;1.30;;;12.00;99.90;;;;;;5052984;28;20159;-81
2022/09/17 00:44:55;;;;;;;10.70;0.82;;;11.90;99.90;;;;;;5034914;28;20199;-81
2022/09/17 00:47:34;;;;;;;1.75;0.90;;;11.80;99.90;;;;;;5053010;28;20232;-80
2022/09/17 00:50:06;;;;;;;5.47;0.90;;;11.80;99.90;;;;;;5052748;28;20213;-80
2022/09/17 00:52:43;;;;;;;5.05;0.90;;;11.70;99.90;;;;;;5052732;28;20225;-82
2022/09/17 00:55:12;;;;;;;3.30;1.05;;;11.80;99.90;;;;;;5052576;28;20237;-80
2022/09/17 00:57:39;;;;;;;4.85;1.15;;;11.70;99.90;;;;;;5034909;28;20179;-81
2022/09/17 01:00:07;;;;;;;9.27;1.00;;;11.80;99.90;;;;;;5034563;28;20534;-79
2022/09/17 01:02:34;;;;;;;5.43;0.93;;;11.80;99.90;;;;;;5052875;28;20370;-80
2022/09/17 01:05:00;;;;;;;8.43;1.33;;;11.80;99.90;;;;;;5034562;28;20194;-79
2022/09/17 01:07:44;;;;;;;3.60;1.00;;;11.90;99.90;;;;;;5052477;28;20178;-79
2022/09/17 01:10:47;;;;;;;11.55;1.30;;;11.90;99.90;;;;;;5052580;28;20267;-80
2022/09/17 01:13:42;;;;;;;4.40;1.17;;;12.00;99.90;;;;;;5034725;28;20680;-81
2022/09/17 01:16:31;;;;;;;7.30;1.10;;;12.10;99.90;;;;;;5034716;28;20245;-80
2022/09/17 01:19:44;;;;;;;2.25;0.90;;;12.20;99.90;;;;;;5052496;28;20170;-80
2022/09/17 01:22:30;;;;;;;14.32;1.23;;;12.30;99.90;;;;;;5052268;28;20632;-80
2022/09/17 01:25:14;;;;;;;6.57;1.05;;;12.30;99.90;;;;;;5052049;28;20218;-80
2022/09/17 01:27:59;;;;;;;4.30;1.25;;;12.30;99.90;;;;;;5052281;28;20190;-80
2022/09/17 01:30:28;;;;;;;11.50;1.45;;;12.30;99.90;;;;;;5034570;28;20264;-82
2022/09/17 01:33:05;;;;;;;1.50;0.98;;;12.30;99.90;;;;;;5052435;28;20164;-80
2022/09/17 01:35:53;;;;;;;7.88;1.38;;;12.20;99.90;;;;;;5034411;28;20664;-80
2022/09/17 01:38:26;;;;;;;9.40;1.63;;;12.10;99.90;;;;;;5034392;28;20163;-80
2022/09/17 01:41:06;;;;;;;3.13;1.15;;;12.20;99.90;;;;;;5034453;28;20545;-81
2022/09/17 01:43:49;;;;;;;3.85;1.42;;;12.20;99.90;;;;;;5034381;28;20581;-80
2022/09/17 01:46:23;;;;;;;8.98;0.80;;;12.10;99.90;;;;;;5051854;28;20645;-79
2022/09/17 01:48:54;;;;;;;12.35;0.95;;;12.30;99.90;;;;;;5052234;28;20182;-80
2022/09/17 01:51:23;;;;;;;8.13;1.10;;;12.20;99.90;;;;;;5052143;28;20210;-81
2022/09/17 01:54:05;;;;;;;7.47;0.82;;;12.10;99.90;;;;;;5034195;28;20625;-79
2022/09/17 01:56:50;;;;;;;3.83;1.02;;;12.10;99.90;;;;;;5052275;28;20179;-79
2022/09/17 01:59:23;;;;;;;4.70;0.93;;;12.20;99.90;;;;;;5034461;28;20167;-80
2022/09/17 02:01:54;;;;;;;8.35;0.95;;;12.10;99.90;;;;;;5051991;28;20565;-80
2022/09/17 02:04:28;;;;;;;11.13;1.10;;;12.10;99.90;;;;;;5051760;28;20163;-80
2022/09/17 02:07:02;;;;;;;7.20;1.65;;;12.00;99.90;;;;;;5051701;28;20249;-80
2022/09/17 02:09:42;;;;;;;3.90;1.00;;;12.10;99.90;;;;;;5051711;28;20198;-79
2022/09/17 02:12:13;;;;;;;12.65;1.10;;;12.10;99.90;;;;;;5034032;28;20594;-80
2022/09/17 02:14:49;;;;;;;6.85;1.23;;;12.10;99.90;;;;;;5034165;28;20192;-79
2022/09/17 02:17:43;;;;;;;5.13;1.38;;;12.10;99.90;;;;;;5051992;28;20167;-80
2022/09/17 02:20:10;;;;;;;6.00;1.33;;;12.10;99.90;;;;;;5053992;28;20171;-80
2022/09/17 02:22:49;;;;;;;14.48;2.03;;;12.10;99.90;;;;;;5055671;28;20163;-81
2022/09/17 02:25:23;;;;;;;7.53;1.48;;;12.10;99.90;;;;;;5037375;28;20570;-80
2022/09/17 02:27:56;;;;;;;6.68;1.30;;;12.30;99.90;;;;;;5055475;28;20220;-80
2022/09/17 02:30:22;;;;;;;9.57;1.40;;;12.30;99.90;;;;;;5037510;28;20592;-80
2022/09/17 02:32:48;;;;;;;5.93;1.08;;;12.40;99.90;;;;;;5055411;28;20171;-80
2022/09/17 02:35:14;;;;;;;2.65;1.02;;;12.50;99.90;;;;;;5037532;28;20213;-81
2022/09/17 02:37:41;;;;;;;10.95;1.10;;;12.50;99.90;;;;;;5055428;28;20685;-80
2022/09/17 02:40:07;;;;;;;6.75;1.20;;;12.70;99.90;;;;;;5055264;28;20190;-81
2022/09/17 02:43:05;;;;;;;6.80;1.35;;;12.60;99.90;;;;;;5055069;28;20174;-81
2022/09/17 02:45:52;;;;;;;5.75;1.00;;;12.50;99.90;;;;;;5031922;28;20689;-80
2022/09/17 02:48:34;;;;;;;6.15;1.08;;;12.40;99.90;;;;;;5055475;28;20217;-80
2022/09/17 02:51:12;;;;;;;16.80;1.67;;;12.30;99.90;;;;;;5055153;28;20225;-81
2022/09/17 02:53:58;;;;;;;5.40;1.05;;;12.20;99.90;;;;;;5055034;28;20167;-81
2022/09/17 02:56:44;;;;;;;9.52;1.33;;;12.20;99.90;;;;;;5055171;28;20194;-80
2022/09/17 02:59:30;;;;;;;5.43;1.08;;;12.40;99.90;;;;;;5055216;28;20606;-80
2022/09/17 03:02:04;;;;;;;6.30;1.20;;;12.40;99.90;;;;;;5037093;28;20171;-80
2022/09/17 03:04:30;;;;;;;13.20;1.27;;;12.40;99.90;;;;;;5037025;28;20565;-81
2022/09/17 03:06:58;;;;;;;8.65;1.40;;;12.40;99.90;;;;;;5037257;28;20231;-81
2022/09/17 03:09:24;;;;;;;9.07;1.20;;;12.30;99.90;;;;;;5037534;28;20191;-81
2022/09/17 03:11:49;;;;;;;6.28;1.67;;;12.20;99.90;;;;;;5055219;28;20186;-81
2022/09/17 03:14:15;;;;;;;10.50;1.90;;;12.20;99.90;;;;;;5054824;28;20167;-81
2022/09/17 03:16:41;;;;;;;2.13;0.95;;;12.00;99.90;;;;;;5036859;28;20655;-80
2022/09/17 03:19:07;;;;;;;12.50;1.40;;;12.20;99.90;;;;;;5054535;28;20182;-82
2022/09/17 03:21:32;;;;;;;8.73;1.25;;;12.10;99.90;;;;;;5036629;28;20207;-81
2022/09/17 03:23:59;;;;;;;12.25;1.17;;;12.10;99.90;;;;;;5036538;28;20630;-80
2022/09/17 03:26:25;;;;;;;8.73;1.48;;;12.10;99.90;;;;;;5036475;28;20645;-80
2022/09/17 03:28:51;;;;;;;7.72;1.10;;;12.00;99.90;;;;;;5054632;28;20163;-81
2022/09/17 03:31:16;;;;;;;4.43;1.15;;;11.80;99.90;;;;;;5035900;28;20218;-82
2022/09/17 03:33:42;;;;;;;4.45;1.15;;;11.90;99.90;;;;;;5036464;28;20172;-80
2022/09/17 03:36:07;;;;;;;12.00;1.63;;;11.90;99.90;;;;;;5054197;28;20198;-81
2022/09/17 03:38:33;;;;;;;8.13;1.42;;;12.00;99.90;;;;;;5054475;28;20163;-80
2022/09/17 03:41:06;;;;;;;4.85;1.35;;;12.10;99.90;;;;;;5036646;28;20206;-81
2022/09/17 03:43:32;;;;;;;7.50;1.48;;;11.80;99.90;;;;;;5054185;28;20179;-81
2022/09/17 03:45:58;;;;;;;8.85;1.75;;;11.80;99.90;;;;;;5036298;28;20213;-80
2022/09/17 03:48:23;;;;;;;4.63;1.45;;;11.80;99.90;;;;;;5036430;28;20171;-81
2022/09/17 03:50:49;;;;;;;4.63;1.33;;;11.80;99.90;;;;;;5054007;28;20252;-80
2022/09/17 03:53:15;;;;;;;9.02;1.33;;;11.80;99.90;;;;;;5053860;28;20205;-80
2022/09/17 03:55:41;;;;;;;13.13;1.90;;;11.90;99.90;;;;;;5053946;28;20187;-81
2022/09/17 03:58:07;;;;;;;8.80;1.70;;;11.90;99.90;;;;;;5035806;28;20166;-80
2022/09/17 04:00:33;;;;;;;10.02;1.70;;;12.00;99.90;;;;;;5053673;28;20167;-82
2022/09/17 04:02:58;;;;;;;11.18;1.38;;;12.00;99.90;;;;;;5053884;28;20649;-82
2022/09/17 04:05:24;;;;;;;13.25;1.17;;;12.00;99.90;;;;;;5053711;28;20187;-82
2022/09/17 04:07:49;;;;;;;16.10;1.77;;;12.00;99.90;;;;;;5053844;28;20664;-81
2022/09/17 04:10:15;;;;;;;13.70;1.83;;;11.90;99.90;;;;;;5053769;28;20210;-81
2022/09/17 04:12:41;;;;;;;6.45;1.40;;;11.80;99.90;;;;;;5053810;28;20171;-82
2022/09/17 04:15:07;;;;;;;12.93;1.33;;;11.70;99.90;;;;;;5053943;28;20688;-82
2022/09/17 04:17:33;;;;;;;5.07;1.50;;;11.60;99.90;;;;;;5035568;28;20290;-83
2022/09/17 04:19:58;;;;;;;9.70;1.65;;;11.50;99.90;;;;;;5035459;28;20637;-82
2022/09/17 04:22:24;;;;;;;18.05;1.88;;;11.40;99.90;;;;;;5035453;28;20170;-81
2022/09/17 04:24:50;;;;;;;13.38;1.73;;;11.30;99.90;;;;;;5035608;28;20179;-81
2022/09/17 04:27:16;;;;;;;8.95;1.80;;;11.40;99.90;;;;;;5035533;28;20175;-81
2022/09/17 04:29:42;;;;;;;17.17;1.80;;;11.40;99.90;;;;;;5053080;28;20657;-82
2022/09/17 04:32:08;;;;;;;15.70;1.67;;;11.50;99.90;;;;;;5053566;28;20258;-83
2022/09/17 04:34:33;;;;;;;8.60;1.80;;;11.40;99.90;;;;;;5035702;28;20270;-82
2022/09/17 04:36:59;;;;;;;11.48;1.63;;;11.30;99.90;;;;;;5035143;28;20172;-81
2022/09/17 04:39:25;;;;;;;14.30;1.98;;;11.40;99.90;;;;;;5053400;28;20171;-81
2022/09/17 04:41:50;;;;;;;19.42;3.10;;;11.50;99.90;;;;;;5053420;28;20175;-81
2022/09/17 04:44:16;;;;;;;10.45;2.03;;;11.50;99.90;;;;;;5035066;28;20187;-81
2022/09/17 04:46:41;;;;;;;8.52;1.63;;;11.50;99.90;;;;;;5052987;28;20167;-83
2022/09/17 04:49:07;;;;;;;12.88;2.50;;;11.40;99.90;;;;;;5035089;28;20270;-82
2022/09/17 04:51:33;;;;;;;11.88;1.13;;;11.40;99.90;;;;;;5053118;28;20172;-82
2022/09/17 04:53:59;;;;;;;10.85;2.78;;;11.50;99.90;;;;;;5052798;28;20238;-81
2022/09/17 04:56:25;;;;;;;17.42;1.85;;;11.60;99.90;;;;;;5034945;28;20680;-83
2022/09/17 04:58:50;;;;;;;12.68;1.77;;;11.50;99.90;;;;;;5035157;28;20262;-81
2022/09/17 05:01:17;;;;;;;9.85;1.60;;;11.70;99.90;;;;;;5052676;28;20167;-83
2022/09/17 05:03:43;;;;;;;5.78;1.13;;;11.60;99.90;;;;;;5034751;28;20175;-82
2022/09/17 05:06:10;;;;;;;10.60;1.80;;;11.50;99.90;;;;;;5034159;28;20191;-83
2022/09/17 05:08:35;;;;;;;15.07;1.60;;;11.40;99.90;;;;;;5052746;28;20179;-82
2022/09/17 05:11:01;;;;;;;20.75;2.38;;;11.40;99.90;;;;;;5034558;28;20199;-82
2022/09/17 05:13:27;;;;;;;9.77;2.85;;;11.30;99.90;;;;;;5034896;28;20173;-80
2022/09/17 05:15:56;;;;;;;16.77;1.90;;;11.30;99.90;;;;;;5052432;28;20243;-83
2022/09/17 05:18:22;;;;;;;24.80;2.03;;;11.50;99.90;;;;;;5034772;28;20174;-82
2022/09/17 05:20:47;;;;;;;4.95;1.20;;;11.60;99.90;;;;;;5034741;28;20167;-81
2022/09/17 05:23:13;;;;;;;19.00;2.08;;;11.80;99.90;;;;;;5052660;28;20651;-82
2022/09/17 05:25:39;;;;;;;11.57;1.80;;;11.70;99.90;;;;;;5052231;28;20681;-82
2022/09/17 05:28:05;;;;;;;15.38;2.60;;;11.70;99.90;;;;;;5034745;28;20206;-83
2022/09/17 05:30:31;;;;;;;6.95;1.40;;;11.80;99.90;;;;;;5034561;28;20684;-83
2022/09/17 05:33:02;;;;;;;5.25;1.95;;;11.80;99.90;;;;;;5034566;28;20201;-82
2022/09/17 05:35:28;;;;;;;4.93;1.45;;;11.70;99.90;;;;;;5052254;28;20195;-82
2022/09/17 05:38:03;;;;;;;8.63;2.03;;;11.90;99.90;;;;;;5052776;28;20199;-81
2022/09/17 05:40:29;;;;;;;14.90;1.70;;;12.00;99.90;;;;;;5034715;28;20546;-82
2022/09/17 05:42:59;;;;;;;12.05;1.73;;;12.00;99.90;;;;;;5034725;28;20183;-82
2022/09/17 05:45:24;;;;;;;14.95;2.28;;;11.90;99.90;;;;;;5034243;28;20614;-82
2022/09/17 05:47:57;;;;;;;9.23;1.50;;;12.00;99.90;;;;;;5034363;28;20195;-81
2022/09/17 05:50:23;;;;;;;6.65;1.92;;;12.00;99.90;;;;;;5051933;28;20203;-82
2022/09/17 05:52:50;;;;;;;9.27;1.55;;;12.00;99.90;;;;;;5052024;28;20167;-81
2022/09/17 05:55:16;;;;;;;10.27;1.42;;;12.00;99.90;;;;;;5054346;28;20194;-81
2022/09/17 05:57:41;;;;;;;9.88;1.30;;;12.00;99.90;;;;;;5038112;28;20170;-81
2022/09/17 06:00:08;;;;;;;9.68;1.65;;;11.80;99.90;;;;;;5038106;28;20602;-83
2022/09/17 06:02:34;;;;;;;6.57;1.85;;;11.80;99.90;;;;;;5038162;28;20163;-83
2022/09/17 06:05:00;;;;;;;9.13;1.85;;;11.90;99.90;;;;;;5056283;28;20201;-82
2022/09/17 06:07:26;;;;;;;9.05;1.50;;;11.90;99.90;;;;;;5037889;28;20168;-81
2022/09/17 06:09:52;;;;;;;10.80;1.50;;;12.10;99.90;;;;;;5055565;28;20321;-79
2022/09/17 06:12:18;;;;;;;4.05;1.27;;;12.10;99.90;;;;;;5055838;28;20258;-80
2022/09/17 06:14:43;;;;;;;5.53;1.30;;;12.10;99.90;;;;;;5055428;28;20683;-83
2022/09/17 06:17:09;;;;;;;13.35;2.13;;;12.00;99.90;;;;;;5055535;28;20655;-80
2022/09/17 06:19:34;;;;;;;9.10;1.83;;;12.10;99.90;;;;;;5055951;28;20173;-79
2022/09/17 06:22:00;;;;;;;8.40;1.67;;;12.20;99.90;;;;;;5055920;28;20618;-79
2022/09/17 06:24:26;;;;;;;10.40;1.70;;;12.50;99.90;;;;;;5037688;28;20167;-81
2022/09/17 06:26:52;;;;;;;7.75;1.20;;;12.50;99.90;;;;;;5055785;28;20151;-79
2022/09/17 06:29:19;;;;;;;12.38;2.15;;;12.60;99.90;;;;;;5055545;28;20217;-79
2022/09/17 06:31:46;;;;;;;10.23;1.55;;;12.60;99.90;;;;;;5055596;28;20531;-80
2022/09/17 06:34:12;;;;;;;12.73;1.58;;;12.60;99.90;;;;;;5055916;28;20214;-80
2022/09/17 06:36:38;;;;;;;8.10;1.60;;;12.70;99.90;;;;;;5056729;28;20637;-79
2022/09/17 06:39:03;;;;;;;5.10;1.27;;;12.70;99.90;;;;;;5056040;28;20194;-79
2022/09/17 06:41:29;;;;;;;12.27;1.83;;;12.50;99.90;;;;;;5055283;28;20171;-80
2022/09/17 06:43:54;;;;;;;7.28;1.75;;;12.40;99.90;;;;;;5055396;28;20179;-79
2022/09/17 06:46:20;;;;;;;10.35;1.45;;;12.50;99.90;;;;;;5055018;28;20210;-79
2022/09/17 06:48:46;;;;;;;9.50;1.60;;;12.60;99.90;;;;;;5055164;28;20701;-78
2022/09/17 06:51:11;;;;;;;13.93;2.20;;;12.70;99.90;;;;;;5037189;28;20715;-79
2022/09/17 06:53:38;;;;;;;5.05;1.65;;;12.80;99.90;;;;;;5054970;28;20167;-80
2022/09/17 06:56:05;;;;;;;6.38;1.45;;;12.70;99.90;;;;;;5053543;28;20669;-79
2022/09/17 06:58:32;;;;;;;10.07;2.00;;;12.60;99.90;;;;;;5038013;28;20179;-81
2022/09/17 07:01:01;;;;;;;12.20;1.58;;;12.70;99.90;;;;;;5037756;28;20163;-82
2022/09/17 07:03:28;;;;;;;7.43;1.40;;;12.90;99.90;;;;;;5056539;28;20167;-80
2022/09/17 07:05:55;;;;;;;6.28;1.30;;;12.90;99.90;;;;;;5054278;28;20567;-80
2022/09/17 07:08:20;;;;;;;11.10;1.23;;;13.00;99.90;;;;;;5056580;28;20167;-81
2022/09/17 07:10:46;;;;;;;9.88;1.67;;;13.10;99.90;;;;;;5040184;28;20198;-80
2022/09/17 07:13:11;;;;;;;8.65;1.40;;;13.20;99.90;;;;;;5049037;28;20171;-80
2022/09/17 07:15:37;;;;;;;10.85;1.63;;;13.00;99.90;;;;;;5058658;28;20221;-87
2022/09/17 07:18:12;;;;;;;10.20;1.65;;;12.70;99.90;;;;;;5038946;28;20225;-79
2022/09/17 07:20:38;;;;;;;7.63;2.13;;;12.60;99.90;;;;;;5053281;28;20166;-84
2022/09/17 07:23:04;;;;;;;18.20;3.05;;;12.60;99.90;;;;;;5053350;28;20170;-81
2022/09/17 07:25:29;;;;;;;11.25;3.80;;;12.60;99.90;;;;;;5053868;28;20207;-80
2022/09/17 07:27:55;;;;;;;3.25;2.90;;;12.60;99.90;;;;;;5053339;28;20171;-80
2022/09/17 07:30:21;;;;;;;12.80;2.90;;;12.70;99.90;;;;;;5052797;28;20217;-79
2022/09/17 07:32:47;;;;;;;7.97;4.03;;;12.80;99.90;;;;;;5035226;28;20167;-79
2022/09/17 07:35:13;;;;;;;12.32;2.35;;;12.90;99.90;;;;;;5054077;28;20303;-84
2022/09/17 07:37:38;;;;;;;7.80;2.40;;;13.00;99.90;;;;;;5054427;28;20200;-82
2022/09/17 07:40:06;;;;;;;9.90;2.58;;;13.10;99.90;;;;;;5036731;28;20248;-80
2022/09/17 07:42:31;;;;;;;4.35;2.33;;;13.10;99.90;;;;;;5054185;28;20727;-81
2022/09/17 07:44:57;;;;;;;11.80;3.30;;;13.10;99.90;;;;;;5054087;28;20237;-80
2022/09/17 07:47:23;;;;;;;11.23;2.17;;;13.30;99.90;;;;;;5036382;28;20537;-81
2022/09/17 07:49:48;;;;;;;9.65;2.92;;;13.40;99.90;;;;;;5054120;28;20199;-82
2022/09/17 07:52:14;;;;;;;6.68;1.63;;;13.50;99.90;;;;;;5054273;28;20171;-82
2022/09/17 07:54:39;;;;;;;4.53;1.35;;;13.60;99.90;;;;;;5053892;28;20614;-80
2022/09/17 07:57:05;;;;;;;6.70;1.10;;;13.60;99.90;;;;;;5054095;28;20262;-81
2022/09/17 07:59:31;;;;;;;2.90;1.40;;;13.70;99.90;;;;;;5036248;28;20225;-82
2022/09/17 08:01:56;;;;;;;6.97;1.67;;;13.90;99.90;;;;;;5036099;28;20502;-81
2022/09/17 08:04:22;;;;;;;9.73;1.70;;;14.10;99.90;;;;;;5035958;28;20170;-82
2022/09/17 08:06:48;;;;;;;9.52;2.03;;;14.10;99.90;;;;;;5035852;28;20175;-81
2022/09/17 08:09:14;;;;;;;7.50;1.52;;;14.10;99.90;;;;;;5035970;28;20155;-82
2022/09/17 08:11:40;;;;;;;6.75;1.48;;;14.10;99.90;;;;;;5053584;28;20272;-81
2022/09/17 08:14:13;;;;;;;7.50;1.85;;;14.10;99.90;;;;;;5036128;28;20205;-81
2022/09/17 08:16:39;;;;;;;5.10;1.65;;;14.20;99.90;;;;;;5053611;28;20175;-81
2022/09/17 08:19:05;;;;;;;6.80;1.42;;;14.30;99.90;;;;;;5054009;28;20195;-82
2022/09/17 08:21:31;;;;;;;7.88;1.33;;;14.30;99.90;;;;;;5053633;28;20237;-81
2022/09/17 08:23:57;;;;;;;3.72;1.40;;;14.30;99.90;;;;;;5035823;28;20171;-83
2022/09/17 08:26:24;;;;;;;3.30;1.10;;;14.40;99.90;;;;;;5053487;28;20525;-81
2022/09/17 08:28:53;;;;;;;16.20;1.40;;;14.50;99.90;;;;;;5053641;28;20195;-81
2022/09/17 08:31:21;;;;;;;8.23;1.50;;;14.40;99.90;;;;;;5035586;28;20622;-81
2022/09/17 08:33:48;;;;;;;6.82;1.42;;;14.70;99.90;;;;;;5053885;28;20255;-83
2022/09/17 08:36:16;;;;;;;6.82;1.92;;;14.90;99.90;;;;;;5035536;28;20187;-87
2022/09/17 08:38:42;;;;;;;9.77;1.88;;;15.40;99.90;;;;;;5053702;28;20171;-81
2022/09/17 08:41:20;;;;;;;12.75;1.60;;;15.70;99.90;;;;;;5054303;28;20189;-81
2022/09/17 08:44:05;;;;;;;7.55;1.58;;;15.90;99.90;;;;;;5036990;28;20241;-81
2022/09/17 08:46:41;;;;;;;7.30;1.48;;;15.90;99.90;;;;;;5053792;28;20277;-81
2022/09/17 08:49:47;;;;;;;10.48;1.77;;;15.40;99.90;;;;;;5054081;28;20182;-79
2022/09/17 08:52:44;;;;;;;5.88;1.52;;;15.00;99.90;;;;;;5034182;28;20199;-81
2022/09/17 08:55:14;;;;;;;3.50;1.20;;;14.60;99.90;;;;;;5053534;28;20202;-82
2022/09/17 08:57:50;;;;;;;13.77;1.50;;;14.80;99.90;;;;;;5035499;28;20321;-81
2022/09/17 09:00:19;;;;;;;7.20;1.30;;;15.10;99.90;;;;;;5035752;28;20167;-81
2022/09/17 09:03:10;;;;;;;7.50;1.60;;;15.40;99.90;;;;;;5054037;28;20565;-81
2022/09/17 09:05:46;;;;;;;11.10;1.50;;;15.20;99.90;;;;;;5037630;28;20251;-80
2022/09/17 09:08:34;;;;;;;6.45;1.42;;;15.10;99.90;;;;;;5060686;28;20159;-80
2022/09/17 09:11:06;;;;;;;8.45;2.00;;;14.90;99.90;;;;;;5061325;28;20206;-83
2022/09/17 09:13:58;;;;;;;5.13;2.63;;;14.90;99.90;;;;;;5060926;28;20171;-81
2022/09/17 09:16:27;;;;;;;6.50;1.88;;;14.90;99.90;;;;;;5060659;28;20189;-81
2022/09/17 09:18:58;;;;;;;5.63;1.83;;;14.80;99.90;;;;;;5059103;28;20216;-81
2022/09/17 09:21:46;;;;;;;11.27;2.17;;;14.80;99.90;;;;;;5053874;28;20171;-82
2022/09/17 09:24:31;;;;;;;4.32;1.60;;;15.00;99.90;;;;;;5053194;28;20171;-81
2022/09/17 09:27:09;;;;;;;4.68;1.42;;;14.80;99.90;;;;;;5035560;28;20171;-80
2022/09/17 09:29:44;;;;;;;8.95;1.50;;;14.60;99.90;;;;;;5052673;28;20248;-80
2022/09/17 09:32:24;;;;;;;4.85;1.27;;;14.20;99.90;;;;;;5035322;28;20257;-80
2022/09/17 09:34:53;;;;;;;5.50;0.80;;;14.10;99.90;;;;;;5052983;28;20224;-81
2022/09/17 09:37:52;;;;;;;8.45;1.48;;;14.00;99.90;;;;;;5053296;28;20257;-83
2022/09/17 09:40:31;;;;;;;3.03;0.88;;;14.20;99.90;;;;;;5035757;28;20174;-81
2022/09/17 09:43:01;;;;;;;3.80;0.88;;;14.20;99.90;;;;;;5035540;28;20187;-82
2022/09/17 09:45:44;;;;;;;6.15;0.90;;;14.50;99.90;;;;;;5052351;28;20187;-80
2022/09/17 09:48:34;;;;;;;2.13;0.55;;;14.50;99.90;;;;;;5034712;28;20660;-80
2022/09/17 09:51:27;;;;;;;2.58;0.70;;;14.40;99.90;;;;;;5052582;28;20215;-82
2022/09/17 09:54:12;;;;;;;7.22;0.90;;;14.60;99.90;;;;;;5035217;28;20167;-81
2022/09/17 09:56:46;;;;;;;7.95;1.42;;;14.90;99.90;;;;;;5052727;28;20168;-83
2022/09/17 09:59:12;;;;;;;6.90;1.00;;;15.30;99.90;;;;;;5052943;28;20171;-80
2022/09/17 10:01:41;;;;;;;0.93;0.80;;;15.30;99.90;;;;;;5052708;28;20218;-81
2022/09/17 10:04:25;;;;;;;4.82;1.60;;;15.60;99.90;;;;;;5035278;28;20167;-82
2022/09/17 10:07:09;;;;;;;8.65;3.78;;;15.60;99.90;;;;;;5035406;28;20539;-82
2022/09/17 10:09:37;;;;;;;11.00;1.60;;;15.50;99.90;;;;;;5035056;28;20164;-83
2022/09/17 10:12:09;;;;;;;2.78;0.90;;;15.60;99.90;;;;;;5035482;28;20172;-82
2022/09/17 10:14:37;;;;;;;7.03;0.90;;;15.70;99.90;;;;;;5037773;28;20253;-82
2022/09/17 10:17:23;;;;;;;2.50;0.82;;;15.70;99.90;;;;;;5059032;28;20147;-82
2022/09/17 10:20:04;;;;;;;6.10;0.85;;;15.50;99.90;;;;;;5076283;28;20151;-81
2022/09/17 10:22:32;;;;;;;1.67;0.85;;;15.10;99.90;;;;;;5076619;28;20203;-82
2022/09/17 10:24:59;;;;;;;4.40;0.60;;;14.90;99.90;;;;;;5075499;28;20285;-81
2022/09/17 10:27:26;;;;;;;2.95;0.80;;;14.90;99.90;;;;;;5058760;28;20270;-81
2022/09/17 10:30:16;;;;;;;4.50;1.33;;;15.00;99.90;;;;;;5074125;28;20203;-81
2022/09/17 10:32:42;;;;;;;4.50;1.00;;;15.00;99.90;;;;;;5051180;28;20202;-81
2022/09/17 10:35:14;;;;;;;14.20;0.98;;;14.90;99.90;;;;;;5053497;28;20191;-80
2022/09/17 10:37:45;;;;;;;4.82;1.20;;;15.00;99.90;;;;;;5055734;28;20235;-81
2022/09/17 10:40:20;;;;;;;2.42;0.98;;;15.20;99.90;;;;;;5055173;28;20186;-80
2022/09/17 10:42:50;;;;;;;2.42;0.90;;;15.40;99.90;;;;;;5040212;28;20261;-80
2022/09/17 10:45:24;;;;;;;10.40;1.00;;;15.30;99.90;;;;;;5058029;28;20191;-81
2022/09/17 10:47:50;;;;;;;1.50;0.65;;;15.50;99.90;;;;;;5057735;28;20224;-80
2022/09/17 10:50:30;;;;;;;4.22;1.00;;;15.40;99.90;;;;;;5056199;28;20611;-80
2022/09/17 10:53:00;;;;;;;3.47;0.90;;;14.90;99.90;;;;;;5055794;28;20171;-81
2022/09/17 10:55:50;;;;;;;3.13;0.90;;;14.90;99.90;;;;;;5038414;28;20202;-82
2022/09/17 10:58:28;;;;;;;2.88;0.60;;;14.90;99.90;;;;;;5037871;28;20167;-80
2022/09/17 11:00:59;;;;;;;4.97;0.70;;;14.80;99.90;;;;;;5055520;28;20223;-80
2022/09/17 11:03:43;;;;;;;2.22;0.80;;;15.00;99.90;;;;;;5037536;28;20175;-80
2022/09/17 11:06:17;;;;;;;2.92;0.80;;;15.00;99.90;;;;;;5055188;28;20202;-80
2022/09/17 11:09:06;;;;;;;37.85;22.10;;;14.90;99.90;;;;;;5055636;28;20183;-79
2022/09/17 11:11:56;;;;;;;2.35;2.05;;;15.00;99.90;;;;;;5055075;28;20202;-81
2022/09/17 11:14:49;;;;;;;4.25;1.65;;;15.20;99.90;;;;;;5055366;28;20163;-80
2022/09/17 11:17:53;;;;;;;5.60;1.50;;;15.20;99.90;;;;;;5055476;28;20170;-80
2022/09/17 11:20:29;;;;;;;9.25;1.60;;;15.10;99.90;;;;;;5054474;28;20191;-80
2022/09/17 11:23:19;;;;;;;5.55;1.33;;;15.10;99.90;;;;;;5054542;28;20214;-80
2022/09/17 11:25:57;;;;;;;5.68;1.10;;;15.20;99.90;;;;;;5054028;28;20615;-79
2022/09/17 11:28:34;;;;;;;6.20;1.02;;;15.50;99.90;;;;;;5054242;28;20163;-80
2022/09/17 11:31:12;;;;;;;3.70;0.70;;;15.50;99.90;;;;;;5054413;28;20248;-80
2022/09/17 11:33:58;;;;;;;6.38;0.80;;;15.40;99.90;;;;;;5036000;28;20174;-79
2022/09/17 11:36:28;;;;;;;1.50;0.95;;;15.20;99.90;;;;;;5053626;28;20333;-80
2022/09/17 11:38:58;;;;;;;7.88;0.90;;;15.30;99.90;;;;;;5053941;28;20242;-80
2022/09/17 11:41:32;;;;;;;6.90;1.20;;;15.20;99.90;;;;;;5054144;28;20170;-80
2022/09/17 11:44:16;;;;;;;8.77;1.70;;;15.10;99.90;;;;;;5054116;28;20179;-81
2022/09/17 11:47:09;;;;;;;2.92;1.23;;;15.00;99.90;;;;;;5053711;28;20186;-79
2022/09/17 11:49:46;;;;;;;7.70;1.52;;;14.80;99.90;;;;;;5053787;28;20646;-80
2022/09/17 11:53:10;;;;;;;3.40;1.25;;;14.90;99.90;;;;;;5053198;28;20238;-79
2022/09/17 11:55:43;;;;;;;3.67;1.40;;;14.80;99.90;;;;;;5009277;28;20561;-81
2022/09/17 11:58:26;;;;;;;12.35;1.73;;;15.10;99.90;;;;;;5053948;28;20209;-82
2022/09/17 12:01:02;;;;;;;4.63;1.60;;;15.20;99.90;;;;;;5053545;28;20333;-80
2022/09/17 12:03:43;;;;;;;11.65;2.78;;;15.50;99.90;;;;;;5053827;28;20199;-80
2022/09/17 12:06:15;;;;;;;15.25;7.90;;;15.60;99.90;;;;;;5053207;28;20648;-80
2022/09/17 12:08:53;;;;;;;5.85;2.47;;;15.60;99.90;;;;;;5053376;28;20233;-82
2022/09/17 12:11:35;;;;;;;7.50;2.10;;;15.50;99.90;;;;;;5053007;28;20570;-79
2022/09/17 12:14:37;;;;;;;6.78;2.33;;;15.30;99.90;;;;;;5035950;28;20636;-80
2022/09/17 12:17:04;;;;;;;16.25;7.25;;;15.20;99.90;;;;;;5035764;28;20171;-79
2022/09/17 12:19:42;;;;;;;13.27;5.53;;;14.90;99.90;;;;;;5053375;28;20649;-80
2022/09/17 12:22:25;;;;;;;8.15;2.58;;;14.70;99.90;;;;;;5035311;28;20216;-80
2022/09/17 12:24:52;;;;;;;16.77;2.38;;;14.80;99.90;;;;;;5053118;28;20186;-80
2022/09/17 12:27:55;;;;;;;7.63;2.30;;;15.10;99.90;;;;;;5053200;28;20155;-81
2022/09/17 12:30:25;;;;;;;13.45;1.92;;;15.10;99.90;;;;;;5035143;28;20209;-81
2022/09/17 12:32:59;;;;;;;11.77;1.85;;;15.10;99.90;;;;;;5053007;28;20171;-81
2022/09/17 12:35:37;;;;;;;8.10;1.50;;;15.20;99.90;;;;;;5035124;28;20252;-82
2022/09/17 12:38:43;;;;;;;12.02;2.58;;;15.30;99.90;;;;;;5052913;28;20663;-82
2022/09/17 12:41:41;;;;;;;16.50;3.50;;;15.70;99.90;;;;;;4988541;28;20186;-81
2022/09/17 12:44:44;;;;;;;6.03;2.13;;;15.70;99.90;;;;;;5052225;28;20206;-81
2022/09/17 12:47:41;;;;;;;10.50;1.90;;;15.70;99.90;;;;;;5034735;28;20170;-80
2022/09/17 12:50:36;;;;;;;13.73;4.38;;;15.90;99.90;;;;;;5052303;28;20250;-80
2022/09/17 12:53:39;;;;;;;6.60;2.33;;;15.60;99.90;;;;;;5035117;28;20270;-81
2022/09/17 12:56:26;;;;;;;4.43;1.98;;;15.20;99.90;;;;;;5035034;28;20281;-81
2022/09/17 12:59:19;;;;;;;5.35;2.10;;;14.70;99.90;;;;;;5034868;28;20204;-83
2022/09/17 13:01:45;;;;;;;5.57;1.67;;;14.50;99.90;;;;;;5053243;28;20178;-82
2022/09/17 13:04:26;;;;;;;9.10;3.42;;;14.20;99.90;;;;;;5051942;28;20160;-81
2022/09/17 13:07:07;;;;;;;7.47;1.88;;;13.90;99.90;;;;;;5034316;28;20228;-81
2022/09/17 13:10:01;;;;;;;13.65;2.05;;;13.70;99.90;;;;;;5051899;28;20159;-80
2022/09/17 13:12:43;;;;;;;9.02;1.50;;;13.60;99.90;;;;;;5034359;28;20637;-82